Time,TemperatureF,DewpointF,PressureIn,WindDirection,WindDirectionDegrees,WindSpeedMPH,WindSpeedGustMPH,Humidity,HourlyPrecipIn,Conditions,Clouds,dailyrainin,SoftwareType,DateUTC
2013-08-27 00:01:00,64.8,28.1,30.06,NE,42,0.0,0.0,25,0.00,,---,0.00,VWS V14.01,2013-08-27 04:01:00,
2013-08-27 00:02:00,64.8,28.1,30.06,NE,42,0.0,0.0,25,0.00,,---,0.00,VWS V14.01,2013-08-27 04:02:00,
2013-08-27 00:07:00,65.1,28.5,30.06,NE,42,0.0,0.0,25,0.00,,---,0.00,VWS V14.01,2013-08-27 04:07:00,
2013-08-27 00:13:00,65.5,28.8,30.06,NE,42,0.0,0.0,25,0.00,,---,0.00,VWS V14.01,2013-08-27 04:13:00,
2013-08-27 00:18:00,65.7,28.9,30.06,NE,42,0.0,0.0,25,0.00,,---,0.00,VWS V14.01,2013-08-27 04:18:00,
2013-08-27 00:23:00,65.8,29.1,30.06,NE,42,0.0,0.0,25,0.00,,---,0.00,VWS V14.01,2013-08-27 04:23:00,
2013-08-27 00:28:00,65.8,29.1,30.06,NE,42,0.0,0.0,25,0.00,,---,0.00,VWS V14.01,2013-08-27 04:28:00,
2013-08-27 00:33:00,65.5,27.8,30.06,NE,42,0.0,0.0,24,0.00,,---,0.00,VWS V14.01,2013-08-27 04:33:00,
2013-08-27 00:38:00,64.9,27.3,30.06,NE,42,0.0,0.0,24,0.00,,---,0.00,VWS V14.01,2013-08-27 04:38:00,
2013-08-27 00:43:00,64.4,27.8,30.06,NE,42,0.0,0.0,25,0.00,,---,0.00,VWS V14.01,2013-08-27 04:43:00,
2013-08-27 00:48:00,64.4,27.8,30.06,NE,43,0.0,0.0,25,0.00,,---,0.00,VWS V14.01,2013-08-27 04:48:00,
2013-08-27 00:54:00,64.0,28.5,30.06,NE,42,0.0,0.0,26,0.00,,---,0.00,VWS V14.01,2013-08-27 04:54:00,
2013-08-27 00:59:00,63.9,28.3,30.06,NE,42,0.0,0.0,26,0.00,,---,0.00,VWS V14.01,2013-08-27 04:59:00,
2013-08-27 01:04:00,64.0,29.4,30.03,NE,42,0.0,0.0,27,0.00,,---,0.00,VWS V14.01,2013-08-27 05:04:00,
2013-08-27 01:09:00,64.0,30.3,30.03,NE,42,0.0,0.0,28,0.00,,---,0.00,VWS V14.01,2013-08-27 05:09:00,
2013-08-27 01:14:00,64.4,29.7,30.03,NE,42,0.0,0.0,27,0.00,,---,0.00,VWS V14.01,2013-08-27 05:14:00,
2013-08-27 01:19:00,64.8,30.0,30.06,NE,42,0.0,0.0,27,0.00,,---,0.00,VWS V14.01,2013-08-27 05:19:00,
2013-08-27 01:24:00,64.9,30.2,30.06,NE,42,0.0,0.0,27,0.00,,---,0.00,VWS V14.01,2013-08-27 05:24:00,
2013-08-27 01:29:00,65.1,30.3,30.06,NE,43,0.0,0.0,27,0.00,,---,0.00,VWS V14.01,2013-08-27 05:29:00,
2013-08-27 01:34:00,65.3,30.5,30.03,NE,42,0.0,0.0,27,0.00,,---,0.00,VWS V14.01,2013-08-27 05:34:00,
2013-08-27 01:39:00,65.3,30.5,30.03,NE,42,0.0,0.0,27,0.00,,---,0.00,VWS V14.01,2013-08-27 05:39:00,
2013-08-27 01:45:00,64.8,29.1,30.03,NE,42,0.0,0.0,26,0.00,,---,0.00,VWS V14.01,2013-08-27 05:45:00,
2013-08-27 01:50:00,64.2,28.6,30.03,NE,42,0.0,0.0,26,0.00,,---,0.00,VWS V14.01,2013-08-27 05:50:00,
2013-08-27 01:55:00,63.5,28.0,30.03,NE,42,0.0,0.0,26,0.00,,---,0.00,VWS V14.01,2013-08-27 05:55:00,
2013-08-27 02:00:00,63.0,28.5,30.03,NE,43,0.0,0.0,27,0.00,,---,0.00,VWS V14.01,2013-08-27 06:00:00,
2013-08-27 02:05:00,62.6,28.2,30.03,NE,42,0.0,0.0,27,0.00,,---,0.00,VWS V14.01,2013-08-27 06:05:00,
2013-08-27 02:10:00,62.6,29.1,30.03,NE,42,0.0,0.0,28,0.00,,---,0.00,VWS V14.01,2013-08-27 06:10:00,
2013-08-27 02:15:00,62.8,30.1,30.03,NE,42,0.0,0.0,29,0.00,,---,0.00,VWS V14.01,2013-08-27 06:15:00,
2013-08-27 02:20:00,63.0,31.1,30.03,NE,42,0.0,0.0,30,0.00,,---,0.00,VWS V14.01,2013-08-27 06:20:00,
2013-08-27 02:25:00,63.1,32.0,30.03,NE,42,0.0,0.0,31,0.00,,---,0.00,VWS V14.01,2013-08-27 06:25:00,
2013-08-27 02:30:00,63.3,33.0,30.03,NE,42,0.0,0.0,32,0.00,,---,0.00,VWS V14.01,2013-08-27 06:30:00,
2013-08-27 02:36:00,63.5,33.9,30.03,NE,42,0.0,0.0,33,0.00,,---,0.00,VWS V14.01,2013-08-27 06:36:00,
2013-08-27 02:41:00,63.5,33.9,30.03,NE,42,0.0,0.0,33,0.00,,---,0.00,VWS V14.01,2013-08-27 06:41:00,
2013-08-27 02:46:00,63.7,34.1,30.03,NE,42,0.0,0.0,33,0.00,,---,0.00,VWS V14.01,2013-08-27 06:46:00,
2013-08-27 02:51:00,63.7,34.1,30.03,NE,43,0.0,0.0,33,0.00,,---,0.00,VWS V14.01,2013-08-27 06:51:00,
2013-08-27 02:56:00,63.5,33.9,30.03,NE,42,0.0,0.0,33,0.00,,---,0.00,VWS V14.01,2013-08-27 06:56:00,
2013-08-27 03:01:00,63.3,33.8,30.03,NE,42,0.0,0.0,33,0.00,,---,0.00,VWS V14.01,2013-08-27 07:01:00,
2013-08-27 03:06:00,63.3,33.8,30.03,NE,43,0.0,0.0,33,0.00,,---,0.00,VWS V14.01,2013-08-27 07:06:00,
2013-08-27 03:11:00,63.3,34.5,30.03,NE,42,0.0,0.0,34,0.00,,---,0.00,VWS V14.01,2013-08-27 07:11:00,
2013-08-27 03:16:00,63.1,33.6,30.03,NE,42,0.0,0.0,33,0.00,,---,0.00,VWS V14.01,2013-08-27 07:16:00,
2013-08-27 03:21:00,63.1,34.3,30.03,NE,42,0.0,0.0,34,0.00,,---,0.00,VWS V14.01,2013-08-27 07:21:00,
2013-08-27 03:26:00,63.1,34.3,30.03,NE,42,0.0,0.0,34,0.00,,---,0.00,VWS V14.01,2013-08-27 07:26:00,
2013-08-27 03:32:00,63.3,34.5,30.03,NE,42,0.0,0.0,34,0.00,,---,0.00,VWS V14.01,2013-08-27 07:32:00,
2013-08-27 03:37:00,63.3,34.5,30.03,NE,42,0.0,0.0,34,0.00,,---,0.00,VWS V14.01,2013-08-27 07:37:00,
2013-08-27 03:42:00,63.1,34.3,30.03,NE,42,0.0,0.0,34,0.00,,---,0.00,VWS V14.01,2013-08-27 07:42:00,
2013-08-27 03:47:00,63.1,34.3,30.03,NE,43,0.0,0.0,34,0.00,,---,0.00,VWS V14.01,2013-08-27 07:47:00,
2013-08-27 03:52:00,63.3,34.5,30.03,NE,42,0.0,0.0,34,0.00,,---,0.00,VWS V14.01,2013-08-27 07:52:00,
2013-08-27 03:57:00,64.2,36.0,30.03,NE,42,0.0,0.0,35,0.00,,---,0.00,VWS V14.01,2013-08-27 07:57:00,
2013-08-27 04:02:00,64.0,35.1,30.03,NE,42,0.0,0.0,34,0.00,,---,0.00,VWS V14.01,2013-08-27 08:02:00,
2013-08-27 04:07:00,63.9,35.7,30.03,NE,42,0.0,0.0,35,0.00,,---,0.00,VWS V14.01,2013-08-27 08:07:00,
2013-08-27 04:12:00,63.7,34.8,30.03,NE,42,0.0,0.0,34,0.00,,---,0.00,VWS V14.01,2013-08-27 08:12:00,
2013-08-27 04:17:00,63.5,35.4,30.03,NE,42,0.0,0.0,35,0.00,,---,0.00,VWS V14.01,2013-08-27 08:17:00,
2013-08-27 04:22:00,63.5,35.4,30.03,NE,42,0.0,0.0,35,0.00,,---,0.00,VWS V14.01,2013-08-27 08:22:00,
2013-08-27 04:27:00,63.5,35.4,30.03,NE,42,2.7,4.0,35,0.00,,---,0.00,VWS V14.01,2013-08-27 08:27:00,
2013-08-27 04:33:00,63.5,35.4,30.03,WSW,248,0.0,0.0,35,0.00,,---,0.00,VWS V14.01,2013-08-27 08:33:00,
2013-08-27 04:38:00,63.3,35.2,30.03,WSW,248,0.0,0.0,35,0.00,,---,0.00,VWS V14.01,2013-08-27 08:38:00,
2013-08-27 04:43:00,63.1,35.1,30.03,WSW,248,0.0,0.0,35,0.00,,---,0.00,VWS V14.01,2013-08-27 08:43:00,
2013-08-27 04:48:00,63.0,34.9,30.03,WSW,248,0.0,0.0,35,0.00,,---,0.00,VWS V14.01,2013-08-27 08:48:00,
2013-08-27 04:53:00,63.0,34.9,30.03,WSW,248,0.0,0.0,35,0.00,,---,0.00,VWS V14.01,2013-08-27 08:53:00,
2013-08-27 04:58:00,62.8,34.8,30.03,WSW,248,0.0,0.0,35,0.00,,---,0.00,VWS V14.01,2013-08-27 08:58:00,
2013-08-27 05:03:00,62.8,34.8,30.03,WSW,248,0.0,0.0,35,0.00,,---,0.00,VWS V14.01,2013-08-27 09:03:00,
2013-08-27 05:08:00,63.0,35.6,30.03,WSW,248,0.0,0.0,36,0.00,,---,0.00,VWS V14.01,2013-08-27 09:08:00,
2013-08-27 05:13:00,63.1,35.8,30.03,WSW,248,0.0,0.0,36,0.00,,---,0.00,VWS V14.01,2013-08-27 09:13:00,
2013-08-27 05:18:00,63.1,35.8,30.03,WSW,248,0.0,0.0,36,0.00,,---,0.00,VWS V14.01,2013-08-27 09:18:00,
2013-08-27 05:23:00,63.3,35.9,30.03,WSW,248,0.0,0.0,36,0.00,,---,0.00,VWS V14.01,2013-08-27 09:23:00,
2013-08-27 05:28:00,63.5,36.8,30.03,WSW,248,0.0,0.0,37,0.00,,---,0.00,VWS V14.01,2013-08-27 09:28:00,
2013-08-27 05:34:00,63.9,37.1,30.03,WSW,248,0.0,0.0,37,0.00,,---,0.00,VWS V14.01,2013-08-27 09:34:00,
2013-08-27 05:39:00,64.0,37.3,30.03,WSW,248,0.0,0.0,37,0.00,,---,0.00,VWS V14.01,2013-08-27 09:39:00,
2013-08-27 05:44:00,64.2,37.4,30.03,WSW,248,0.0,0.0,37,0.00,,---,0.00,VWS V14.01,2013-08-27 09:44:00,
2013-08-27 05:49:00,64.0,37.3,30.03,WSW,248,0.0,0.0,37,0.00,,---,0.00,VWS V14.01,2013-08-27 09:49:00,
2013-08-27 05:54:00,63.9,37.1,30.03,WSW,248,0.0,0.0,37,0.00,,---,0.00,VWS V14.01,2013-08-27 09:54:00,
2013-08-27 05:59:00,63.9,37.1,30.03,WSW,248,0.0,0.0,37,0.00,,---,0.00,VWS V14.01,2013-08-27 09:59:00,
2013-08-27 06:04:00,63.9,37.8,30.03,WSW,248,0.0,0.0,38,0.00,,---,0.00,VWS V14.01,2013-08-27 10:04:00,
2013-08-27 06:09:00,64.2,38.1,30.03,WSW,248,0.0,0.0,38,0.00,,---,0.00,VWS V14.01,2013-08-27 10:09:00,
2013-08-27 06:14:00,64.4,38.3,30.03,WSW,248,0.0,0.0,38,0.00,,---,0.00,VWS V14.01,2013-08-27 10:14:00,
2013-08-27 06:19:00,64.6,38.4,30.03,NE,56,0.0,0.0,38,0.00,,---,0.00,VWS V14.01,2013-08-27 10:19:00,
2013-08-27 06:24:00,64.6,38.4,30.03,NE,56,0.0,0.0,38,0.00,,---,0.00,VWS V14.01,2013-08-27 10:24:00,
2013-08-27 06:29:00,64.8,38.6,30.03,NE,56,0.0,0.0,38,0.00,,---,0.00,VWS V14.01,2013-08-27 10:29:00,
2013-08-27 06:34:00,64.8,38.6,30.03,NE,56,2.2,2.2,38,0.00,,---,0.00,VWS V14.01,2013-08-27 10:34:00,
2013-08-27 06:39:00,64.8,38.6,30.03,NE,56,0.0,0.0,38,0.00,,---,0.00,VWS V14.01,2013-08-27 10:39:00,
2013-08-27 06:44:00,64.9,39.4,30.03,NE,56,0.0,0.0,39,0.00,,---,0.00,VWS V14.01,2013-08-27 10:44:00,
2013-08-27 06:49:00,65.3,39.7,30.03,NE,56,0.0,0.0,39,0.00,,---,0.00,VWS V14.01,2013-08-27 10:49:00,
2013-08-27 06:54:00,65.3,39.7,30.03,NE,56,0.0,0.0,39,0.00,,---,0.00,VWS V14.01,2013-08-27 10:54:00,
2013-08-27 06:59:00,65.3,39.7,30.03,NE,56,0.0,0.0,39,0.00,,---,0.00,VWS V14.01,2013-08-27 10:59:00,
2013-08-27 07:04:00,65.7,40.0,30.03,NE,56,0.0,0.0,39,0.00,,---,0.00,VWS V14.01,2013-08-27 11:04:00,
2013-08-27 07:09:00,65.8,40.2,30.03,NNE,12,0.0,0.0,39,0.00,,---,0.00,VWS V14.01,2013-08-27 11:09:00,
2013-08-27 07:14:00,65.8,40.2,30.03,NNE,12,0.0,0.0,39,0.00,,---,0.00,VWS V14.01,2013-08-27 11:14:00,
2013-08-27 07:19:00,65.5,39.2,30.03,NNE,12,0.0,0.0,38,0.00,,---,0.00,VWS V14.01,2013-08-27 11:19:00,
2013-08-27 07:24:00,65.5,39.2,30.03,NNE,12,0.0,0.0,38,0.00,,---,0.00,VWS V14.01,2013-08-27 11:24:00,
2013-08-27 07:29:00,65.3,39.1,30.03,NNE,12,0.0,0.0,38,0.00,,---,0.00,VWS V14.01,2013-08-27 11:29:00,
2013-08-27 07:34:00,64.9,38.1,30.03,NNE,12,0.0,0.0,37,0.00,,---,0.00,VWS V14.01,2013-08-27 11:34:00,
2013-08-27 07:39:00,64.8,38.6,30.03,NNE,12,0.0,0.0,38,0.00,,---,0.00,VWS V14.01,2013-08-27 11:39:00,
2013-08-27 07:44:00,64.9,38.8,30.03,NNE,12,0.0,0.0,38,0.00,,---,0.00,VWS V14.01,2013-08-27 11:44:00,
2013-08-27 07:49:00,65.3,39.7,30.03,NNE,12,0.0,0.0,39,0.00,,---,0.00,VWS V14.01,2013-08-27 11:49:00,
2013-08-27 07:54:00,65.8,40.2,30.03,NNE,12,0.0,0.0,39,0.00,,---,0.00,VWS V14.01,2013-08-27 11:54:00,
2013-08-27 07:59:00,66.0,41.0,30.03,NNE,12,0.0,0.0,40,0.00,,---,0.00,VWS V14.01,2013-08-27 11:59:00,
2013-08-27 08:04:00,66.4,41.3,30.03,NNE,12,0.0,0.0,40,0.00,,---,0.00,VWS V14.01,2013-08-27 12:04:00,
2013-08-27 08:09:00,66.9,41.8,30.03,NNE,12,0.0,0.0,40,0.00,,---,0.16,VWS V14.01,2013-08-27 12:09:00,
2013-08-27 08:14:00,67.3,42.8,30.03,NNE,12,0.0,0.0,41,0.00,,---,0.00,VWS V14.01,2013-08-27 12:14:00,
2013-08-27 08:19:00,67.6,43.1,30.03,NNE,12,0.0,0.0,41,0.00,,---,0.00,VWS V14.01,2013-08-27 12:19:00,
2013-08-27 08:24:00,68.0,43.5,30.03,NNE,12,0.0,0.0,41,0.00,,---,0.00,VWS V14.01,2013-08-27 12:24:00,
2013-08-27 08:29:00,68.4,44.4,30.03,NNE,12,0.0,0.0,42,0.00,,---,0.00,VWS V14.01,2013-08-27 12:29:00,
2013-08-27 08:34:00,68.7,44.7,30.03,NNE,12,0.0,0.0,42,0.00,,---,0.00,VWS V14.01,2013-08-27 12:34:00,
2013-08-27 08:39:00,68.9,44.2,30.03,NNE,12,0.0,0.0,41,0.00,,---,0.00,VWS V14.01,2013-08-27 12:39:00,
2013-08-27 08:44:00,69.1,44.4,30.03,NNE,12,0.0,0.0,41,0.00,,---,0.00,VWS V14.01,2013-08-27 12:44:00,
2013-08-27 08:49:00,69.3,44.6,30.03,NNE,12,0.0,0.0,41,0.00,,---,0.00,VWS V14.01,2013-08-27 12:49:00,
2013-08-27 08:54:00,69.3,43.9,30.03,NNE,12,0.0,0.0,40,0.00,,---,0.00,VWS V14.01,2013-08-27 12:54:00,
2013-08-27 08:59:00,69.3,43.9,30.03,NNE,12,0.0,0.0,40,0.00,,---,0.00,VWS V14.01,2013-08-27 12:59:00,
2013-08-27 09:04:00,69.3,43.3,30.03,NNE,12,0.0,0.0,39,0.00,,---,0.00,VWS V14.01,2013-08-27 13:04:00,
2013-08-27 09:09:00,69.3,43.3,30.03,NNE,12,0.0,0.0,39,0.00,,---,0.00,VWS V14.01,2013-08-27 13:09:00,
2013-08-27 09:14:00,69.4,43.4,30.03,NNE,12,0.0,0.0,39,0.00,,---,0.00,VWS V14.01,2013-08-27 13:14:00,
2013-08-27 09:19:00,69.8,43.1,30.03,NNE,12,0.0,0.0,38,0.00,,---,0.00,VWS V14.01,2013-08-27 13:19:00,
2013-08-27 09:24:00,69.8,43.1,30.03,SW,214,0.0,0.0,38,0.00,,---,0.00,VWS V14.01,2013-08-27 13:24:00,
2013-08-27 09:29:00,69.8,42.4,30.03,SW,214,0.0,0.0,37,0.00,,---,0.00,VWS V14.01,2013-08-27 13:29:00,
2013-08-27 09:34:00,70.0,42.5,30.03,SW,214,0.0,0.0,37,0.00,,---,0.00,VWS V14.01,2013-08-27 13:34:00,
2013-08-27 09:39:00,70.2,42.7,30.03,SW,214,0.0,0.0,37,0.00,,---,0.00,VWS V14.01,2013-08-27 13:39:00,
2013-08-27 09:44:00,70.5,42.3,30.03,SW,214,0.0,0.0,36,0.00,,---,0.00,VWS V14.01,2013-08-27 13:44:00,
2013-08-27 09:49:00,70.9,42.6,30.03,SW,214,0.0,0.0,36,0.00,,---,0.00,VWS V14.01,2013-08-27 13:49:00,
2013-08-27 09:54:00,71.2,42.9,30.03,West,279,0.0,0.0,36,0.00,,---,0.00,VWS V14.01,2013-08-27 13:54:00,
2013-08-27 09:59:00,71.4,43.1,30.03,SSW,197,3.6,3.6,36,0.00,,---,0.00,VWS V14.01,2013-08-27 13:59:00,
2013-08-27 10:04:00,71.4,42.4,30.03,SW,236,0.0,0.0,35,0.00,,---,0.00,VWS V14.01,2013-08-27 14:04:00,
2013-08-27 10:09:00,71.6,41.8,30.03,SW,214,0.0,0.0,34,0.00,,---,0.00,VWS V14.01,2013-08-27 14:09:00,
2013-08-27 10:14:00,71.6,41.8,30.03,SSW,201,0.0,0.0,34,0.00,,---,0.00,VWS V14.01,2013-08-27 14:14:00,
2013-08-27 10:19:00,71.4,41.6,30.03,SW,233,0.0,3.1,34,0.00,,---,0.00,VWS V14.01,2013-08-27 14:19:00,
2013-08-27 10:24:00,71.4,40.8,30.03,SSW,213,0.0,0.0,33,0.00,,---,0.00,VWS V14.01,2013-08-27 14:24:00,
2013-08-27 10:29:00,71.4,40.8,30.03,SSW,200,2.7,3.1,33,0.00,,---,0.00,VWS V14.01,2013-08-27 14:29:00,
2013-08-27 10:34:00,71.6,40.2,30.03,SW,223,0.0,0.0,32,0.00,,---,0.00,VWS V14.01,2013-08-27 14:34:00,
2013-08-27 10:39:00,71.8,40.4,30.03,SW,235,0.0,5.8,32,0.00,,---,0.00,VWS V14.01,2013-08-27 14:39:00,
2013-08-27 10:44:00,71.8,39.5,30.03,SW,219,0.0,0.0,31,0.00,,---,0.00,VWS V14.01,2013-08-27 14:44:00,
2013-08-27 10:49:00,72.1,39.9,30.03,WSW,247,0.0,3.1,31,0.00,,---,0.00,VWS V14.01,2013-08-27 14:49:00,
2013-08-27 10:54:00,72.5,39.3,30.03,West,270,0.0,0.0,30,0.00,,---,0.00,VWS V14.01,2013-08-27 14:54:00,
2013-08-27 10:59:00,72.7,38.6,30.03,SSW,203,0.0,0.0,29,0.00,,---,0.00,VWS V14.01,2013-08-27 14:59:00,
2013-08-27 11:04:00,73.0,38.9,30.03,SW,230,0.0,0.0,29,0.00,,---,0.00,VWS V14.01,2013-08-27 15:04:00,
2013-08-27 11:09:00,73.2,38.2,30.03,SSW,213,0.0,0.0,28,0.00,,---,0.00,VWS V14.01,2013-08-27 15:09:00,
2013-08-27 11:14:00,73.4,36.5,30.03,SSW,213,0.0,0.0,26,0.00,,---,0.00,VWS V14.01,2013-08-27 15:14:00,
2013-08-27 11:19:00,73.6,35.6,30.03,SW,234,0.0,0.0,25,0.00,,---,0.00,VWS V14.01,2013-08-27 15:19:00,
2013-08-27 11:24:00,73.6,35.6,30.03,SSE,165,0.0,0.0,25,0.00,,---,0.00,VWS V14.01,2013-08-27 15:24:00,
2013-08-27 11:29:00,73.8,35.8,30.03,SW,216,5.4,5.4,25,0.00,,---,0.00,VWS V14.01,2013-08-27 15:29:00,
2013-08-27 11:34:00,73.9,33.8,30.03,SSW,204,4.0,4.0,23,0.00,,---,0.00,VWS V14.01,2013-08-27 15:34:00,
2013-08-27 11:40:00,74.3,34.1,30.03,SSW,204,0.0,0.0,23,0.00,,---,0.00,VWS V14.01,2013-08-27 15:40:00,
2013-08-27 11:45:00,74.7,33.3,30.03,SSW,211,3.1,3.1,22,0.00,,---,0.00,VWS V14.01,2013-08-27 15:45:00,
2013-08-27 11:50:00,74.8,32.3,30.03,SW,220,2.7,2.7,21,0.00,,---,0.00,VWS V14.01,2013-08-27 15:50:00,
2013-08-27 11:55:00,74.8,32.3,30.03,East,91,0.0,3.1,21,0.00,,---,0.00,VWS V14.01,2013-08-27 15:55:00,
2013-08-27 12:00:00,74.8,32.3,30.03,East,91,0.0,0.0,21,0.00,,---,0.00,VWS V14.01,2013-08-27 16:00:00,
2013-08-27 12:05:00,74.8,32.3,30.03,East,88,0.0,0.0,21,0.00,,---,0.00,VWS V14.01,2013-08-27 16:05:00,
2013-08-27 12:10:00,75.6,32.9,30.03,East,98,0.0,0.0,21,0.00,,---,0.00,VWS V14.01,2013-08-27 16:10:00,
2013-08-27 12:15:00,76.1,33.4,30.03,SSW,205,2.7,2.7,21,0.00,,---,0.00,VWS V14.01,2013-08-27 16:15:00,
2013-08-27 12:20:00,76.5,32.5,30.03,South,191,0.0,0.0,20,0.00,,---,0.00,VWS V14.01,2013-08-27 16:20:00,
2013-08-27 12:25:00,76.6,30.0,30.03,SE,142,0.0,0.0,18,0.00,,---,0.00,VWS V14.01,2013-08-27 16:25:00,
2013-08-27 12:30:00,76.8,30.1,30.03,SE,139,0.0,0.0,18,0.00,,---,0.00,VWS V14.01,2013-08-27 16:30:00,
2013-08-27 12:36:00,77.0,30.3,30.03,ESE,117,0.0,0.0,18,0.00,,---,0.00,VWS V14.01,2013-08-27 16:36:00,
2013-08-27 12:41:00,77.2,26.0,30.03,ESE,117,0.0,0.0,15,0.00,,---,0.00,VWS V14.01,2013-08-27 16:41:00,
2013-08-27 12:46:00,77.4,26.1,30.03,South,171,0.0,0.0,15,0.00,,---,0.00,VWS V14.01,2013-08-27 16:46:00,
2013-08-27 12:51:00,77.5,26.3,30.03,South,171,2.7,2.7,15,0.00,,---,0.00,VWS V14.01,2013-08-27 16:51:00,
2013-08-27 12:56:00,77.5,26.3,30.03,SSE,150,0.0,0.0,15,0.00,,---,0.00,VWS V14.01,2013-08-27 16:56:00,
2013-08-27 13:01:00,77.5,26.3,30.01,SE,143,4.9,4.9,15,0.00,,---,0.16,VWS V14.01,2013-08-27 17:01:00,
2013-08-27 13:06:00,77.4,26.1,30.01,SSE,150,0.0,0.0,15,0.00,,---,0.00,VWS V14.01,2013-08-27 17:06:00,
2013-08-27 13:11:00,77.2,26.0,30.01,East,97,2.2,2.2,15,0.00,,---,0.00,VWS V14.01,2013-08-27 17:11:00,
2013-08-27 13:17:00,77.2,26.0,30.01,SSE,157,0.0,0.0,15,0.00,,---,0.00,VWS V14.01,2013-08-27 17:17:00,
2013-08-27 13:22:00,77.2,26.0,30.01,WSW,252,3.1,4.0,15,0.00,,---,0.00,VWS V14.01,2013-08-27 17:22:00,
2013-08-27 13:27:00,77.2,22.6,30.01,SSE,151,0.0,0.0,13,0.00,,---,0.00,VWS V14.01,2013-08-27 17:27:00,
2013-08-27 13:32:00,77.2,22.6,30.01,SSE,151,0.0,0.0,13,0.00,,---,0.00,VWS V14.01,2013-08-27 17:32:00,
2013-08-27 13:37:00,77.5,22.9,30.01,South,190,0.0,0.0,13,0.00,,---,0.00,VWS V14.01,2013-08-27 17:37:00,
2013-08-27 13:42:00,78.1,23.3,30.01,South,190,0.0,0.0,13,0.00,,---,0.00,VWS V14.01,2013-08-27 17:42:00,
2013-08-27 13:47:00,78.4,23.6,30.01,South,189,0.0,0.0,13,0.00,,---,0.00,VWS V14.01,2013-08-27 17:47:00,
2013-08-27 13:52:00,78.1,23.3,30.01,ENE,76,0.0,0.0,13,0.00,,---,0.00,VWS V14.01,2013-08-27 17:52:00,
2013-08-27 13:57:00,78.1,23.3,30.01,ENE,76,0.0,0.0,13,0.00,,---,0.00,VWS V14.01,2013-08-27 17:57:00,
2013-08-27 14:02:00,78.1,26.7,30.01,SSW,208,0.0,0.0,15,0.00,,---,0.00,VWS V14.01,2013-08-27 18:02:00,
2013-08-27 14:07:00,78.3,23.4,30.01,SE,137,0.0,0.0,13,0.00,,---,0.00,VWS V14.01,2013-08-27 18:07:00,
2013-08-27 14:12:00,78.1,23.3,30.01,SE,127,0.0,0.0,13,0.00,,---,0.00,VWS V14.01,2013-08-27 18:12:00,
2013-08-27 14:18:00,77.7,23.0,30.01,SE,127,0.0,0.0,13,0.00,,---,0.00,VWS V14.01,2013-08-27 18:18:00,
2013-08-27 14:23:00,77.4,22.7,30.01,East,80,0.0,2.7,13,0.00,,---,0.00,VWS V14.01,2013-08-27 18:23:00,
2013-08-27 14:28:00,77.2,22.6,30.01,SE,144,3.1,3.1,13,0.00,,---,0.00,VWS V14.01,2013-08-27 18:28:00,
2013-08-27 14:33:00,77.0,22.4,30.01,SE,139,3.1,3.1,13,0.00,,---,0.00,VWS V14.01,2013-08-27 18:33:00,
2013-08-27 14:38:00,76.8,22.3,30.01,SE,139,0.0,0.0,13,0.00,,---,0.00,VWS V14.01,2013-08-27 18:38:00,
2013-08-27 14:43:00,76.6,22.1,30.01,SE,139,0.0,0.0,13,0.00,,---,0.00,VWS V14.01,2013-08-27 18:43:00,
2013-08-27 14:48:00,76.6,22.1,30.01,SE,139,0.0,0.0,13,0.00,,---,0.00,VWS V14.01,2013-08-27 18:48:00,
2013-08-27 14:53:00,76.8,22.3,30.01,SE,139,0.0,0.0,13,0.00,,---,0.00,VWS V14.01,2013-08-27 18:53:00,
2013-08-27 14:58:00,77.0,22.4,30.01,SSE,148,0.0,0.0,13,0.00,,---,0.00,VWS V14.01,2013-08-27 18:58:00,
2013-08-27 15:03:00,77.2,22.6,30.01,SSE,148,0.0,0.0,13,0.00,,---,0.00,VWS V14.01,2013-08-27 19:03:00,
2013-08-27 15:08:00,77.4,22.7,30.01,SE,135,0.0,0.0,13,0.00,,---,0.00,VWS V14.01,2013-08-27 19:08:00,
2013-08-27 15:14:00,77.5,22.9,30.01,SE,135,0.0,0.0,13,0.00,,---,0.00,VWS V14.01,2013-08-27 19:14:00,
2013-08-27 15:19:00,77.5,22.9,30.01,SE,135,0.0,0.0,13,0.00,,---,0.00,VWS V14.01,2013-08-27 19:19:00,
2013-08-27 15:24:00,77.4,22.7,30.01,East,98,0.0,2.7,13,0.00,,---,0.00,VWS V14.01,2013-08-27 19:24:00,
2013-08-27 15:29:00,77.2,22.6,30.01,ESE,117,0.0,0.0,13,0.00,,---,0.00,VWS V14.01,2013-08-27 19:29:00,
2013-08-27 15:34:00,77.2,22.6,30.01,ESE,110,0.0,0.0,13,0.00,,---,0.00,VWS V14.01,2013-08-27 19:34:00,
2013-08-27 15:39:00,77.0,22.4,30.01,ESE,110,0.0,0.0,13,0.00,,---,0.00,VWS V14.01,2013-08-27 19:39:00,
2013-08-27 15:44:00,77.0,22.4,30.01,ESE,110,0.0,0.0,13,0.00,,---,0.00,VWS V14.01,2013-08-27 19:44:00,
2013-08-27 15:49:00,77.0,22.4,30.01,SSE,155,0.0,0.0,13,0.00,,---,0.00,VWS V14.01,2013-08-27 19:49:00,
2013-08-27 15:55:00,77.0,22.4,30.01,SSE,155,0.0,0.0,13,0.00,,---,0.00,VWS V14.01,2013-08-27 19:55:00,
2013-08-27 16:00:00,77.0,22.4,30.01,SSE,155,0.0,0.0,13,0.00,,---,0.00,VWS V14.01,2013-08-27 20:00:00,
2013-08-27 16:05:00,77.2,22.6,30.01,SE,139,0.0,0.0,13,0.00,,---,0.00,VWS V14.01,2013-08-27 20:05:00,
2013-08-27 16:10:00,77.2,22.6,30.01,SE,139,0.0,0.0,13,0.00,,---,0.00,VWS V14.01,2013-08-27 20:10:00,
2013-08-27 16:15:00,77.0,22.4,29.98,SE,130,0.0,3.1,13,0.00,,---,0.00,VWS V14.01,2013-08-27 20:15:00,
2013-08-27 16:20:00,76.8,22.3,29.98,SE,130,0.0,0.0,13,0.00,,---,0.00,VWS V14.01,2013-08-27 20:20:00,
2013-08-27 16:21:00,76.8,22.3,29.98,SE,130,0.0,0.0,13,0.00,,---,0.00,VWS V14.01,2013-08-27 20:21:00,
2013-08-27 16:26:00,76.5,22.0,29.98,SE,125,0.0,0.0,13,0.00,,---,0.00,VWS V14.01,2013-08-27 20:26:00,
2013-08-27 16:31:00,76.3,21.9,29.98,SE,125,0.0,0.0,13,0.00,,---,0.00,VWS V14.01,2013-08-27 20:31:00,
2013-08-27 16:36:00,76.1,21.7,29.98,SE,125,0.0,0.0,13,0.00,,---,0.00,VWS V14.01,2013-08-27 20:36:00,
2013-08-27 16:41:00,75.9,21.6,29.98,SE,124,0.0,0.0,13,0.00,,---,0.00,VWS V14.01,2013-08-27 20:41:00,
2013-08-27 16:46:00,75.7,21.5,29.98,SE,125,0.0,0.0,13,0.00,,---,0.00,VWS V14.01,2013-08-27 20:46:00,
2013-08-27 16:51:00,75.4,21.2,29.98,SE,124,0.0,0.0,13,0.00,,---,0.00,VWS V14.01,2013-08-27 20:51:00,
2013-08-27 16:56:00,75.2,21.0,29.98,SE,125,0.0,0.0,13,0.00,,---,0.00,VWS V14.01,2013-08-27 20:56:00,
2013-08-27 17:01:00,74.8,20.7,29.98,SE,124,0.0,0.0,13,0.00,,---,0.00,VWS V14.01,2013-08-27 21:01:00,
2013-08-27 17:06:00,74.7,25.5,29.98,ENE,62,0.0,0.0,16,0.00,,---,0.00,VWS V14.01,2013-08-27 21:06:00,
2013-08-27 17:11:00,74.5,25.4,29.98,ENE,62,0.0,0.0,16,0.00,,---,0.00,VWS V14.01,2013-08-27 21:11:00,
2013-08-27 17:16:00,74.3,25.2,29.98,ENE,62,0.0,0.0,16,0.00,,---,0.00,VWS V14.01,2013-08-27 21:16:00,
2013-08-27 17:21:00,74.1,25.1,29.98,ENE,62,0.0,0.0,16,0.00,,---,0.00,VWS V14.01,2013-08-27 21:21:00,
2013-08-27 17:26:00,73.9,25.0,29.98,ENE,62,0.0,0.0,16,0.00,,---,0.00,VWS V14.01,2013-08-27 21:26:00,
2013-08-27 17:31:00,73.8,24.8,29.98,ENE,62,0.0,0.0,16,0.00,,---,0.00,VWS V14.01,2013-08-27 21:31:00,
2013-08-27 17:36:00,73.8,24.8,29.98,ENE,62,0.0,0.0,16,0.00,,---,0.00,VWS V14.01,2013-08-27 21:36:00,
2013-08-27 17:41:00,73.6,27.5,29.98,ENE,62,0.0,0.0,18,0.00,,---,0.00,VWS V14.01,2013-08-27 21:41:00,
2013-08-27 17:46:00,73.4,27.4,29.98,ENE,62,0.0,0.0,18,0.00,,---,0.00,VWS V14.01,2013-08-27 21:46:00,
2013-08-27 17:51:00,73.2,28.5,29.98,ENE,62,0.0,0.0,19,0.00,,---,0.00,VWS V14.01,2013-08-27 21:51:00,
2013-08-27 17:56:00,73.2,28.5,29.98,NNE,23,3.1,3.1,19,0.00,,---,0.00,VWS V14.01,2013-08-27 21:56:00,
2013-08-27 18:01:00,73.2,31.0,29.98,NE,38,0.0,0.0,21,0.00,,---,0.00,VWS V14.01,2013-08-27 22:01:00,
2013-08-27 18:07:00,73.4,31.1,29.98,NE,38,0.0,0.0,21,0.00,,---,0.00,VWS V14.01,2013-08-27 22:07:00,
2013-08-27 18:12:00,73.6,31.3,29.98,NE,38,0.0,0.0,21,0.00,,---,0.00,VWS V14.01,2013-08-27 22:12:00,
2013-08-27 18:17:00,73.6,31.3,29.98,NE,38,0.0,0.0,21,0.00,,---,0.00,VWS V14.01,2013-08-27 22:17:00,
2013-08-27 18:22:00,73.8,31.4,29.98,NE,38,0.0,0.0,21,0.00,,---,0.00,VWS V14.01,2013-08-27 22:22:00,
2013-08-27 18:27:00,73.8,31.4,29.98,NE,38,0.0,0.0,21,0.00,,---,0.00,VWS V14.01,2013-08-27 22:27:00,
2013-08-27 18:32:00,73.9,31.6,29.98,NE,38,0.0,0.0,21,0.00,,---,0.00,VWS V14.01,2013-08-27 22:32:00,
2013-08-27 18:37:00,73.9,31.6,29.98,NE,38,0.0,0.0,21,0.00,,---,0.00,VWS V14.01,2013-08-27 22:37:00,
2013-08-27 18:42:00,73.8,31.4,29.98,NE,38,0.0,0.0,21,0.00,,---,0.00,VWS V14.01,2013-08-27 22:42:00,
2013-08-27 18:47:00,73.6,31.3,29.98,NE,38,0.0,0.0,21,0.00,,---,0.00,VWS V14.01,2013-08-27 22:47:00,
2013-08-27 18:52:00,73.4,31.1,29.98,NE,38,0.0,0.0,21,0.00,,---,0.00,VWS V14.01,2013-08-27 22:52:00,
2013-08-27 18:57:00,73.0,30.8,29.98,NE,38,0.0,0.0,21,0.00,,---,0.00,VWS V14.01,2013-08-27 22:57:00,
2013-08-27 19:02:00,72.9,31.8,29.98,NE,38,0.0,0.0,22,0.00,,---,0.00,VWS V14.01,2013-08-27 23:02:00,
2013-08-27 19:07:00,72.7,31.7,29.98,NE,38,0.0,0.0,22,0.00,,---,0.00,VWS V14.01,2013-08-27 23:07:00,
2013-08-27 19:12:00,72.7,31.7,29.98,NE,38,0.0,0.0,22,0.00,,---,0.00,VWS V14.01,2013-08-27 23:12:00,
2013-08-27 19:17:00,72.7,31.7,29.98,NE,38,0.0,0.0,22,0.00,,---,0.00,VWS V14.01,2013-08-27 23:17:00,
2013-08-27 19:22:00,72.7,31.7,29.98,NE,38,0.0,0.0,22,0.00,,---,0.00,VWS V14.01,2013-08-27 23:22:00,
2013-08-27 19:27:00,72.7,31.7,29.98,NE,38,0.0,0.0,22,0.00,,---,0.00,VWS V14.01,2013-08-27 23:27:00,
2013-08-27 19:32:00,72.5,31.5,29.98,NE,38,0.0,0.0,22,0.00,,---,0.00,VWS V14.01,2013-08-27 23:32:00,
2013-08-27 19:37:00,72.3,31.4,29.98,NE,38,0.0,0.0,22,0.00,,---,0.00,VWS V14.01,2013-08-27 23:37:00,
2013-08-27 19:42:00,72.1,31.2,29.98,NE,38,0.0,0.0,22,0.00,,---,0.00,VWS V14.01,2013-08-27 23:42:00,
2013-08-27 19:48:00,71.8,30.9,29.98,NE,38,0.0,0.0,22,0.00,,---,0.00,VWS V14.01,2013-08-27 23:48:00,
2013-08-27 19:53:00,71.4,31.7,29.98,NE,38,0.0,0.0,23,0.00,,---,0.00,VWS V14.01,2013-08-27 23:53:00,
2013-08-27 19:58:00,71.2,31.6,29.98,NE,38,0.0,0.0,23,0.00,,---,0.00,VWS V14.01,2013-08-27 23:58:00,
2013-08-27 20:03:00,71.1,31.4,29.98,NE,38,0.0,0.0,23,0.00,,---,0.00,VWS V14.01,2013-08-28 00:03:00,
2013-08-27 20:08:00,70.9,31.3,29.98,NE,38,0.0,0.0,23,0.00,,---,0.00,VWS V14.01,2013-08-28 00:08:00,
2013-08-27 20:13:00,70.7,31.1,29.98,NE,38,0.0,0.0,23,0.00,,---,0.00,VWS V14.01,2013-08-28 00:13:00,
2013-08-27 20:18:00,70.7,31.1,29.98,NE,38,0.0,0.0,23,0.00,,---,0.00,VWS V14.01,2013-08-28 00:18:00,
2013-08-27 20:23:00,70.5,31.0,29.98,NE,38,0.0,0.0,23,0.00,,---,0.00,VWS V14.01,2013-08-28 00:23:00,
2013-08-27 20:28:00,70.5,32.0,29.98,NE,38,0.0,0.0,24,0.00,,---,0.00,VWS V14.01,2013-08-28 00:28:00,
2013-08-27 20:33:00,70.5,32.0,29.98,NE,38,0.0,0.0,24,0.00,,---,0.00,VWS V14.01,2013-08-28 00:33:00,
2013-08-27 20:38:00,70.3,32.9,29.98,NE,38,0.0,0.0,25,0.00,,---,0.00,VWS V14.01,2013-08-28 00:38:00,
2013-08-27 20:43:00,70.5,33.0,29.98,NE,38,0.0,0.0,25,0.00,,---,0.00,VWS V14.01,2013-08-28 00:43:00,
2013-08-27 20:48:00,70.5,33.0,30.01,North,9,0.0,0.0,25,0.00,,---,0.00,VWS V14.01,2013-08-28 00:48:00,
2013-08-27 20:53:00,70.5,33.0,30.01,North,9,0.0,0.0,25,0.00,,---,0.00,VWS V14.01,2013-08-28 00:53:00,
2013-08-27 20:58:00,70.5,33.0,30.01,North,9,0.0,0.0,25,0.00,,---,0.00,VWS V14.01,2013-08-28 00:58:00,
2013-08-27 21:03:00,70.5,34.0,30.01,North,9,0.0,0.0,26,0.00,,---,0.00,VWS V14.01,2013-08-28 01:03:00,
2013-08-27 21:08:00,70.5,34.0,30.01,North,9,0.0,0.0,26,0.00,,---,0.00,VWS V14.01,2013-08-28 01:08:00,
2013-08-27 21:13:00,70.3,33.9,30.01,North,9,0.0,0.0,26,0.00,,---,0.00,VWS V14.01,2013-08-28 01:13:00,
2013-08-27 21:18:00,70.3,33.9,30.01,North,9,0.0,0.0,26,0.00,,---,0.00,VWS V14.01,2013-08-28 01:18:00,
2013-08-27 21:23:00,70.2,34.7,30.01,North,9,0.0,0.0,27,0.00,,---,0.00,VWS V14.01,2013-08-28 01:23:00,
2013-08-27 21:28:00,70.2,33.7,30.01,North,9,0.0,0.0,26,0.00,,---,0.00,VWS V14.01,2013-08-28 01:28:00,
2013-08-27 21:33:00,70.2,34.7,30.01,North,9,0.0,0.0,27,0.00,,---,0.00,VWS V14.01,2013-08-28 01:33:00,
2013-08-27 21:38:00,70.0,34.5,30.01,North,9,0.0,0.0,27,0.00,,---,0.00,VWS V14.01,2013-08-28 01:38:00,
2013-08-27 21:43:00,70.0,34.5,30.01,North,9,0.0,0.0,27,0.00,,---,0.00,VWS V14.01,2013-08-28 01:43:00,
2013-08-27 21:49:00,70.0,34.5,30.01,North,9,0.0,0.0,27,0.00,,---,0.00,VWS V14.01,2013-08-28 01:49:00,
2013-08-27 21:54:00,69.8,34.3,30.01,North,9,0.0,0.0,27,0.00,,---,0.00,VWS V14.01,2013-08-28 01:54:00,
2013-08-27 21:59:00,69.8,34.3,30.01,North,9,0.0,0.0,27,0.00,,---,0.00,VWS V14.01,2013-08-28 01:59:00,
2013-08-27 22:04:00,69.6,35.1,30.01,North,9,0.0,0.0,28,0.00,,---,0.00,VWS V14.01,2013-08-28 02:04:00,
2013-08-27 22:09:00,69.6,35.1,30.01,North,9,0.0,0.0,28,0.00,,---,0.00,VWS V14.01,2013-08-28 02:09:00,
2013-08-27 22:14:00,69.6,35.1,30.01,North,9,0.0,0.0,28,0.00,,---,0.00,VWS V14.01,2013-08-28 02:14:00,
2013-08-27 22:19:00,69.6,35.1,30.01,North,9,0.0,0.0,28,0.00,,---,0.00,VWS V14.01,2013-08-28 02:19:00,
2013-08-27 22:24:00,69.6,35.1,30.01,North,9,0.0,0.0,28,0.00,,---,0.00,VWS V14.01,2013-08-28 02:24:00,
2013-08-27 22:29:00,69.4,35.0,30.01,North,9,0.0,0.0,28,0.00,,---,0.00,VWS V14.01,2013-08-28 02:29:00,
2013-08-27 22:34:00,69.4,35.0,30.01,North,9,0.0,0.0,28,0.00,,---,0.00,VWS V14.01,2013-08-28 02:34:00,
2013-08-27 22:39:00,69.3,34.8,30.01,North,9,0.0,0.0,28,0.00,,---,0.00,VWS V14.01,2013-08-28 02:39:00,
2013-08-27 22:44:00,69.3,34.8,30.01,North,9,0.0,0.0,28,0.00,,---,0.00,VWS V14.01,2013-08-28 02:44:00,
2013-08-27 22:49:00,69.3,34.8,30.01,North,9,0.0,0.0,28,0.00,,---,0.00,VWS V14.01,2013-08-28 02:49:00,
2013-08-27 22:54:00,69.1,34.6,30.01,North,9,0.0,0.0,28,0.00,,---,0.00,VWS V14.01,2013-08-28 02:54:00,
2013-08-27 22:59:00,68.9,34.5,30.01,North,9,0.0,0.0,28,0.00,,---,0.00,VWS V14.01,2013-08-28 02:59:00,
2013-08-27 23:04:00,68.9,35.4,30.01,North,9,0.0,0.0,29,0.00,,---,0.00,VWS V14.01,2013-08-28 03:04:00,
2013-08-27 23:09:00,68.9,35.4,30.01,North,9,0.0,0.0,29,0.00,,---,0.00,VWS V14.01,2013-08-28 03:09:00,
2013-08-27 23:14:00,68.9,35.4,30.01,North,9,0.0,0.0,29,0.00,,---,0.00,VWS V14.01,2013-08-28 03:14:00,
2013-08-27 23:19:00,69.1,35.5,30.01,North,9,0.0,0.0,29,0.00,,---,0.00,VWS V14.01,2013-08-28 03:19:00,
2013-08-27 23:24:00,69.1,35.5,30.01,North,9,0.0,0.0,29,0.00,,---,0.00,VWS V14.01,2013-08-28 03:24:00,
2013-08-27 23:29:00,69.1,35.5,30.01,North,9,0.0,0.0,29,0.00,,---,0.00,VWS V14.01,2013-08-28 03:29:00,
2013-08-27 23:34:00,69.1,35.5,30.01,North,9,0.0,0.0,29,0.00,,---,0.00,VWS V14.01,2013-08-28 03:34:00,
2013-08-27 23:39:00,68.9,36.2,30.01,North,9,0.0,0.0,30,0.00,,---,0.00,VWS V14.01,2013-08-28 03:39:00,
2013-08-27 23:44:00,69.1,36.4,30.01,North,9,0.0,0.0,30,0.00,,---,0.00,VWS V14.01,2013-08-28 03:44:00,
2013-08-27 23:49:00,69.1,36.4,30.01,North,9,0.0,0.0,30,0.00,,---,0.00,VWS V14.01,2013-08-28 03:49:00,
2013-08-27 23:54:00,69.3,36.5,30.01,North,9,0.0,0.0,30,0.00,,---,0.00,VWS V14.01,2013-08-28 03:54:00,
2013-08-27 23:59:00,69.3,37.4,30.01,North,9,0.0,0.0,31,0.00,,---,0.00,VWS V14.01,2013-08-28 03:59:00,